createdAt,value
2019-03-22T00:04:42.750Z,39.07
2019-03-22T00:09:36.729Z,37.07
2019-03-22T00:14:30.831Z,37.57
2019-03-22T00:19:24.822Z,45.40
2019-03-22T00:24:18.774Z,43.30
2019-03-22T00:29:13.049Z,43.93
2019-03-22T00:34:07.145Z,40.33
2019-03-22T00:39:01.124Z,40.83
2019-03-22T00:43:55.325Z,43.27
2019-03-22T00:48:49.410Z,45.57
2019-03-22T00:53:43.448Z,37.23
2019-03-22T00:58:37.431Z,38.27
2019-03-22T01:03:31.432Z,39.73
2019-03-22T01:08:25.428Z,47.60
2019-03-22T01:13:19.397Z,44.40
2019-03-22T01:18:13.370Z,43.90
2019-03-22T01:23:07.350Z,45.20
2019-03-22T01:28:01.344Z,42.27
2019-03-22T01:32:55.502Z,41.67
2019-03-22T01:37:49.494Z,41.23
2019-03-22T01:42:43.574Z,39.00
2019-03-22T01:47:37.531Z,40.70
2019-03-22T01:52:31.518Z,47.27
2019-03-22T01:57:25.622Z,40.97
2019-03-22T02:02:19.603Z,35.27
2019-03-22T02:07:13.656Z,38.40
2019-03-22T02:12:07.649Z,34.70
2019-03-22T02:17:01.768Z,35.43
2019-03-22T02:21:55.737Z,35.97
2019-03-22T02:26:49.688Z,36.30
2019-03-22T02:31:43.679Z,34.70
2019-03-22T02:36:37.652Z,35.10
2019-03-22T02:41:31.627Z,31.47
2019-03-22T02:46:25.615Z,39.97
2019-03-22T02:51:19.585Z,38.67
2019-03-22T02:56:13.719Z,36.73
2019-03-22T03:01:07.931Z,36.83
2019-03-22T03:06:01.907Z,33.00
2019-03-22T03:10:55.970Z,31.07
2019-03-22T03:15:49.942Z,33.83
2019-03-22T03:20:43.942Z,35.47
2019-03-22T03:25:37.902Z,36.17
2019-03-22T03:30:31.863Z,32.87
2019-03-22T03:35:25.828Z,32.53
2019-03-22T03:40:19.991Z,33.80
2019-03-22T03:45:31.779Z,32.53
2019-03-22T03:50:25.731Z,36.83
2019-03-22T03:55:19.696Z,34.50
2019-03-22T04:00:14.045Z,32.30
2019-03-22T04:05:08.093Z,30.03
2019-03-22T04:10:04.505Z,31.43
2019-03-22T04:14:58.478Z,33.00
2019-03-22T04:19:52.469Z,31.97
2019-03-22T04:24:46.428Z,32.27
2019-03-22T04:29:40.389Z,34.07
2019-03-22T04:34:34.366Z,30.30
2019-03-22T04:39:28.376Z,32.93
2019-03-22T04:44:22.405Z,37.53
2019-03-22T04:49:16.769Z,33.43
2019-03-22T04:54:11.020Z,34.90
2019-03-22T04:59:18.518Z,34.30
2019-03-22T05:04:04.373Z,32.17
2019-03-22T05:08:59.038Z,33.93
2019-03-22T05:13:55.002Z,34.80
2019-03-22T05:18:49.773Z,39.03
2019-03-22T05:23:44.932Z,37.00
2019-03-22T05:28:38.998Z,38.43
2019-03-22T05:33:32.963Z,32.30
2019-03-22T05:38:26.958Z,35.03
2019-03-22T05:43:20.981Z,42.63
2019-03-22T05:48:15.029Z,41.47
2019-03-22T05:53:09.006Z,34.17
2019-03-22T05:58:03.086Z,35.17
2019-03-22T06:02:57.078Z,37.83
2019-03-22T06:07:51.038Z,36.03
2019-03-22T06:12:45.006Z,35.90
2019-03-22T06:17:38.974Z,35.20
2019-03-22T06:22:32.993Z,32.03
2019-03-22T06:27:26.973Z,33.63
2019-03-22T06:32:20.943Z,30.20
2019-03-22T06:37:15.048Z,34.07
2019-03-22T06:42:09.056Z,35.83
2019-03-22T06:47:03.113Z,31.67
2019-03-22T06:51:57.069Z,31.13
2019-03-22T06:56:51.056Z,30.77
2019-03-22T07:01:45.035Z,38.33
2019-03-22T07:06:39.036Z,35.77
2019-03-22T07:11:33.083Z,39.23
2019-03-22T07:16:27.049Z,32.70
2019-03-22T07:21:21.026Z,34.73
2019-03-22T07:26:15.119Z,33.70
2019-03-22T07:31:09.078Z,30.10
2019-03-22T07:36:03.138Z,31.50
2019-03-22T07:40:57.145Z,30.47
2019-03-22T07:45:51.289Z,31.23
2019-03-22T07:50:45.282Z,35.30
2019-03-22T07:55:39.342Z,27.93
2019-03-22T08:00:33.436Z,29.00
2019-03-22T08:05:27.415Z,30.33
2019-03-22T08:10:21.514Z,32.17
2019-03-22T08:15:19.510Z,27.97
2019-03-22T08:20:13.539Z,28.00
2019-03-22T08:25:07.699Z,26.23
2019-03-22T08:30:02.518Z,29.27
2019-03-22T08:34:56.491Z,28.90
2019-03-22T08:39:50.512Z,26.13
2019-03-22T08:44:44.608Z,26.90
2019-03-22T08:49:38.730Z,27.42
2019-03-22T08:54:32.777Z,29.03
2019-03-22T08:59:26.725Z,29.87
2019-03-22T09:04:20.740Z,29.53
2019-03-22T09:09:14.691Z,34.17
2019-03-22T09:14:08.666Z,31.40
2019-03-22T09:19:02.709Z,26.30
2019-03-22T09:23:56.778Z,24.83
2019-03-22T09:28:50.874Z,23.47
2019-03-22T09:33:44.816Z,24.98
2019-03-22T09:38:38.771Z,26.23
2019-03-22T09:43:32.808Z,25.52
2019-03-22T09:48:26.745Z,23.75
2019-03-22T09:53:20.818Z,24.12
2019-03-22T09:58:14.851Z,22.82
2019-03-22T10:03:08.960Z,24.90
2019-03-22T10:08:03.027Z,24.57
2019-03-22T10:12:57.036Z,20.25
2019-03-22T10:17:51.029Z,24.12
2019-03-22T10:22:44.996Z,20.92
2019-03-22T10:27:39.111Z,23.30
2019-03-22T10:32:33.151Z,22.50
2019-03-22T10:37:27.308Z,23.20
2019-03-22T10:42:21.319Z,17.25
2019-03-22T10:47:17.973Z,20.08
2019-03-22T10:52:11.142Z,17.12
2019-03-22T10:57:05.151Z,16.57
2019-03-22T11:02:03.777Z,13.10
2019-03-22T11:06:55.087Z,14.87
2019-03-22T11:11:49.161Z,11.20
2019-03-22T11:16:43.145Z,11.15
2019-03-22T11:21:37.335Z,9.83
2019-03-22T11:26:31.337Z,8.78
2019-03-22T11:31:28.586Z,11.45
2019-03-22T11:36:21.481Z,10.50
2019-03-22T11:41:15.597Z,10.72
2019-03-22T11:46:09.571Z,9.85
2019-03-22T11:51:03.956Z,9.63
2019-03-22T11:55:57.903Z,7.45
2019-03-22T12:00:51.983Z,8.05
2019-03-22T12:05:46.078Z,7.30
2019-03-22T12:10:40.211Z,7.55
2019-03-22T12:15:34.185Z,9.78
2019-03-22T12:20:28.165Z,9.38
2019-03-22T12:25:24.150Z,8.80
2019-03-22T12:30:18.361Z,8.10
2019-03-22T12:35:14.470Z,7.67
2019-03-22T12:40:14.357Z,6.45
2019-03-22T12:45:11.553Z,6.95
2019-03-22T12:50:06.445Z,4.35
2019-03-22T12:55:00.494Z,3.92
2019-03-22T12:59:54.477Z,7.78
2019-03-22T13:04:48.477Z,6.50
2019-03-22T13:09:42.469Z,3.77
2019-03-22T13:14:36.552Z,3.72
2019-03-22T13:19:30.576Z,3.37
2019-03-22T13:24:24.876Z,4.78
2019-03-22T13:29:18.876Z,2.90
2019-03-22T13:34:13.185Z,2.85
2019-03-22T13:39:07.271Z,4.10
2019-03-22T13:44:01.319Z,3.87
2019-03-22T13:48:55.325Z,2.83
2019-03-22T13:53:49.270Z,3.47
2019-03-22T13:58:43.490Z,2.52
2019-03-22T14:03:37.463Z,2.72
2019-03-22T14:08:31.425Z,5.42
2019-03-22T14:13:25.409Z,2.75
2019-03-22T14:18:19.406Z,3.15
2019-03-22T14:23:13.536Z,2.30
2019-03-22T14:28:07.517Z,3.65
2019-03-22T14:33:01.522Z,2.72
2019-03-22T14:37:55.656Z,1.75
2019-03-22T14:42:49.779Z,1.98
2019-03-22T14:47:43.919Z,2.22
2019-03-22T14:52:38.025Z,2.12
2019-03-22T14:57:31.999Z,1.27
2019-03-22T15:02:26.023Z,2.42
2019-03-22T15:07:20.268Z,2.33
2019-03-22T15:12:14.480Z,1.30
2019-03-22T15:17:13.091Z,2.25
2019-03-22T15:22:09.084Z,2.70
2019-03-22T15:27:21.698Z,2.80
2019-03-22T15:32:20.503Z,2.30
2019-03-22T15:37:28.591Z,2.62
2019-03-22T15:42:23.150Z,2.45
2019-03-22T15:47:17.475Z,3.58
2019-03-22T15:52:11.477Z,2.98
2019-03-22T15:57:05.572Z,5.72
2019-03-22T16:01:59.798Z,3.90
2019-03-22T16:06:53.773Z,3.30
2019-03-22T16:11:48.255Z,2.47
2019-03-22T16:16:42.260Z,2.77
2019-03-22T16:21:36.369Z,3.58
2019-03-22T16:26:30.492Z,4.60
2019-03-22T16:31:24.490Z,8.33
2019-03-22T16:36:18.560Z,9.25
2019-03-22T16:41:12.691Z,5.75
2019-03-22T16:46:06.759Z,5.83
2019-03-22T16:51:00.848Z,4.97
2019-03-22T16:55:54.911Z,10.25
2019-03-22T17:00:50.031Z,3.75
2019-03-22T17:05:44.265Z,6.37
2019-03-22T17:10:38.338Z,5.92
2019-03-22T17:15:32.419Z,6.90
2019-03-22T17:20:26.512Z,5.62
2019-03-22T17:25:20.497Z,7.75
2019-03-22T17:30:14.889Z,7.00
2019-03-22T17:35:08.973Z,10.32
2019-03-22T17:40:06.518Z,10.82
2019-03-22T17:45:00.609Z,19.60
2019-03-22T17:49:54.600Z,19.02
2019-03-22T17:54:48.599Z,13.88
2019-03-22T17:59:42.609Z,11.57
2019-03-22T18:04:36.610Z,9.98
2019-03-22T18:09:30.604Z,8.90
2019-03-22T18:14:24.586Z,9.15
2019-03-22T18:19:18.538Z,9.83
2019-03-22T18:24:12.520Z,8.48
2019-03-22T18:29:06.503Z,8.90
2019-03-22T18:34:00.585Z,8.45
2019-03-22T18:38:54.633Z,9.00
2019-03-22T18:43:48.722Z,8.33
2019-03-22T18:48:42.700Z,9.98
2019-03-22T18:53:36.701Z,8.58
2019-03-22T18:58:30.691Z,9.25
2019-03-22T19:03:24.806Z,11.93
2019-03-22T19:08:19.086Z,6.75
2019-03-22T19:13:13.084Z,7.50
2019-03-22T19:18:07.072Z,14.60
2019-03-22T19:23:01.390Z,10.60
2019-03-22T19:27:55.369Z,7.60
2019-03-22T19:32:49.808Z,12.43
2019-03-22T19:37:43.916Z,8.15
2019-03-22T19:42:38.166Z,12.13
2019-03-22T19:47:32.115Z,12.18
2019-03-22T19:52:26.242Z,11.38
2019-03-22T19:57:20.191Z,15.40
2019-03-22T20:02:14.225Z,14.83
2019-03-22T20:07:08.257Z,11.70
2019-03-22T20:12:04.425Z,11.95
2019-03-22T20:16:58.373Z,13.75
2019-03-22T20:21:52.489Z,12.98
2019-03-22T20:26:46.465Z,8.25
2019-03-22T20:31:40.720Z,19.40
2019-03-22T20:36:34.876Z,15.25
2019-03-22T20:41:29.046Z,10.95
2019-03-22T20:46:23.154Z,11.50
2019-03-22T20:51:17.260Z,6.80
2019-03-22T20:56:11.280Z,10.60
2019-03-22T21:01:05.379Z,7.87
2019-03-22T21:05:59.351Z,9.10
2019-03-22T21:10:53.497Z,8.45
2019-03-22T21:15:47.476Z,7.45
2019-03-22T21:20:41.466Z,11.18
2019-03-22T21:25:35.448Z,8.58
2019-03-22T21:30:29.458Z,10.88
2019-03-22T21:35:23.539Z,11.53
2019-03-22T21:40:17.524Z,11.93
2019-03-22T21:45:12.275Z,11.65
2019-03-22T21:50:08.800Z,10.35
2019-03-22T21:55:04.599Z,8.58
2019-03-22T21:59:58.568Z,14.20
2019-03-22T22:04:52.746Z,11.25
2019-03-22T22:09:46.755Z,10.95
2019-03-22T22:14:41.301Z,14.78
2019-03-22T22:19:35.457Z,14.75
2019-03-22T22:24:29.456Z,11.73
2019-03-22T22:29:23.424Z,15.17
2019-03-22T22:34:17.405Z,10.40
2019-03-22T22:39:11.469Z,13.00
2019-03-22T22:44:05.583Z,10.87
2019-03-22T22:48:59.675Z,11.90
2019-03-22T22:53:53.677Z,11.70
2019-03-22T22:58:48.007Z,14.40
2019-03-22T23:03:41.968Z,16.10
2019-03-22T23:08:36.373Z,15.60
2019-03-22T23:13:30.455Z,14.97
2019-03-22T23:18:24.450Z,15.88
2019-03-22T23:23:18.490Z,13.07
2019-03-22T23:28:12.464Z,13.80
2019-03-22T23:33:06.448Z,14.13
2019-03-22T23:38:00.419Z,17.23
2019-03-22T23:42:54.427Z,18.07
2019-03-22T23:47:48.504Z,19.40
2019-03-22T23:52:42.519Z,22.07
2019-03-22T23:57:36.494Z,24.27
